Time;durP1;ratioP1;P1;durP2;ratioP2;P2;SDS_P1;SDS_P2;PMS_P1;PMS_P2;Temp;Humidity;BMP_temperature;BMP_pressure;BME280_temperature;BME280_humidity;BME280_pressure;Samples;Min_cycle;Max_cycle;Signal;HPM_P1;HPM_P2
2023/05/17 00:02:19;;;;;;;0.70;0.70;;;;;;;8.14;64.35;97790.38;5068349;28;20036;-69
2023/05/17 00:04:47;;;;;;;0.52;0.52;;;;;;;8.07;64.48;97788.41;5057065;28;20048;-69
2023/05/17 00:07:14;;;;;;;0.68;0.68;;;;;;;8.03;64.75;97786.25;5061786;28;20048;-70
2023/05/17 00:09:43;;;;;;;0.80;0.80;;;;;;;8.08;64.50;97787.41;5061391;28;20123;-72
2023/05/17 00:12:11;;;;;;;0.75;0.75;;;;;;;8.01;64.47;97791.75;5061202;28;20226;-72
2023/05/17 00:14:38;;;;;;;0.70;0.70;;;;;;;8.03;64.73;97791.59;5058974;28;20037;-71
2023/05/17 00:17:06;;;;;;;0.65;0.65;;;;;;;8.01;64.59;97786.44;5059358;28;20046;-73
2023/05/17 00:19:34;;;;;;;0.85;0.85;;;;;;;7.95;66.04;97789.78;5052908;28;20049;-71
2023/05/17 00:22:01;;;;;;;0.65;0.65;;;;;;;7.89;66.76;97798.44;5051606;28;20074;-70
2023/05/17 00:24:29;;;;;;;0.50;0.50;;;;;;;7.70;67.44;97793.53;5059153;28;20043;-71
2023/05/17 00:26:58;;;;;;;0.65;0.65;;;;;;;7.53;68.31;97805.22;5053396;28;20519;-71
2023/05/17 00:29:25;;;;;;;0.52;0.52;;;;;;;7.39;68.53;97801.44;5048804;28;20052;-71
2023/05/17 00:31:53;;;;;;;0.52;0.52;;;;;;;7.17;70.30;97804.78;5063984;28;20060;-71
2023/05/17 00:34:21;;;;;;;0.85;0.85;;;;;;;7.05;70.68;97804.31;5065500;28;20064;-72
2023/05/17 00:36:48;;;;;;;0.60;0.60;;;;;;;7.02;70.09;97799.34;5038111;28;20136;-70
2023/05/17 00:39:16;;;;;;;0.73;0.73;;;;;;;7.21;69.23;97803.47;5069201;28;20040;-71
2023/05/17 00:41:43;;;;;;;0.70;0.70;;;;;;;7.30;68.79;97808.59;5064805;28;20045;-71
2023/05/17 00:44:12;;;;;;;0.75;0.75;;;;;;;7.32;68.75;97809.25;5048605;28;20037;-71
2023/05/17 00:46:42;;;;;;;0.80;0.80;;;;;;;7.38;68.42;97799.78;5049883;28;20044;-71
2023/05/17 00:49:09;;;;;;;0.80;0.80;;;;;;;7.40;68.29;97803.09;5065219;28;20043;-71
2023/05/17 00:51:37;;;;;;;0.55;0.55;;;;;;;7.38;68.42;97805.09;5046967;28;20040;-72
2023/05/17 00:54:05;;;;;;;0.77;0.77;;;;;;;7.36;68.46;97809.75;5060425;28;20059;-72
2023/05/17 00:56:33;;;;;;;0.77;0.77;;;;;;;7.37;68.21;97806.91;5039437;28;20033;-74
2023/05/17 00:59:02;;;;;;;0.80;0.80;;;;;;;7.36;68.14;97804.44;5052498;28;20045;-71
2023/05/17 01:01:31;;;;;;;0.70;0.70;;;;;;;7.28;68.52;97801.78;5072999;28;20067;-70
2023/05/17 01:04:00;;;;;;;0.55;0.55;;;;;;;7.24;68.49;97808.44;5059055;28;20569;-70
2023/05/17 01:06:27;;;;;;;0.88;0.88;;;;;;;7.16;68.75;97813.78;5069679;28;20079;-70
2023/05/17 01:08:55;;;;;;;0.93;0.93;;;;;;;7.11;68.88;97816.09;5058068;28;20045;-70
2023/05/17 01:11:30;;;;;;;0.88;0.88;;;;;;;7.14;68.72;97821.91;5061311;28;20591;-70
2023/05/17 01:14:02;;;;;;;0.20;0.20;;;;;;;7.16;68.90;97819.91;5065153;28;20400;-71
2023/05/17 01:16:34;;;;;;;0.10;0.10;;;;;;;7.14;68.70;97831.69;5068887;28;20424;-70
2023/05/17 01:19:08;;;;;;;0.80;0.80;;;;;;;7.09;68.86;97818.06;5073178;28;20045;-70
2023/05/17 01:21:41;;;;;;;0.75;0.75;;;;;;;7.03;69.06;97827.53;5062241;28;20098;-69
2023/05/17 01:24:23;;;;;;;0.50;0.50;;;;;;;6.97;69.31;97825.53;5048391;28;20056;-70
2023/05/17 01:26:53;;;;;;;0.68;0.68;;;;;;;6.91;69.27;97829.69;5060500;28;20047;-72
2023/05/17 01:29:25;;;;;;;0.73;0.73;;;;;;;6.86;69.51;97831.16;5068324;28;20032;-72
2023/05/17 01:31:56;;;;;;;0.80;0.80;;;;;;;6.84;69.57;97828.72;5054577;28;20032;-71
2023/05/17 01:34:25;;;;;;;0.90;0.90;;;;;;;6.78;69.79;97834.66;5043479;28;20045;-71
2023/05/17 01:36:52;;;;;;;0.60;0.60;;;;;;;6.72;70.05;97835.31;5056551;28;20045;-72
2023/05/17 01:39:20;;;;;;;0.63;0.63;;;;;;;6.78;69.64;97839.13;5053866;28;20041;-71
2023/05/17 01:42:01;;;;;;;0.50;0.50;;;;;;;6.82;69.58;97829.84;5053531;28;20048;-71
2023/05/17 01:44:33;;;;;;;0.60;0.60;;;;;;;6.69;69.83;97830.34;5060306;28;20480;-71
2023/05/17 01:47:06;;;;;;;0.80;0.80;;;;;;;6.69;70.02;97837.47;5061669;28;20033;-71
2023/05/17 01:49:38;;;;;;;0.80;0.80;;;;;;;6.71;70.04;97833.66;5073716;28;20040;-71
2023/05/17 01:52:09;;;;;;;0.60;0.60;;;;;;;6.76;69.84;97839.28;5054699;28;20066;-70
2023/05/17 01:54:49;;;;;;;0.65;0.65;;;;;;;6.74;69.76;97836.00;5061680;28;20044;-70
2023/05/17 01:57:19;;;;;;;0.82;0.82;;;;;;;6.75;69.74;97834.97;5062794;28;20056;-70
2023/05/17 01:59:49;;;;;;;0.30;0.30;;;;;;;6.73;69.72;97841.47;5051029;28;20496;-71
2023/05/17 02:02:17;;;;;;;0.70;0.70;;;;;;;6.68;69.91;97835.81;5071944;28;20051;-70
2023/05/17 02:04:44;;;;;;;1.00;1.00;;;;;;;6.67;70.00;97827.03;5067615;28;20045;-71
2023/05/17 02:07:12;;;;;;;0.88;0.88;;;;;;;6.67;69.87;97819.06;5052344;28;20117;-71
2023/05/17 02:09:39;;;;;;;0.50;0.50;;;;;;;6.74;69.40;97832.50;5066412;28;20127;-71
2023/05/17 02:12:07;;;;;;;0.80;0.80;;;;;;;6.74;69.48;97824.56;5051551;28;20053;-70
2023/05/17 02:14:36;;;;;;;0.55;0.55;;;;;;;6.69;69.69;97826.84;5066382;28;20040;-71
2023/05/17 02:17:05;;;;;;;0.55;0.55;;;;;;;6.68;69.85;97826.03;5059894;28;20041;-71
2023/05/17 02:19:32;;;;;;;0.70;0.70;;;;;;;6.64;69.90;97822.88;5062074;28;20049;-71
2023/05/17 02:22:00;;;;;;;0.75;0.75;;;;;;;6.66;69.65;97812.09;5042568;28;20076;-71
2023/05/17 02:24:29;;;;;;;0.65;0.65;;;;;;;6.67;69.57;97826.19;5065057;28;20037;-70
2023/05/17 02:26:57;;;;;;;0.95;0.95;;;;;;;6.58;69.87;97820.06;5066655;28;20044;-70
2023/05/17 02:29:24;;;;;;;0.60;0.60;;;;;;;6.56;69.75;97829.97;5066891;28;20123;-71
2023/05/17 02:31:53;;;;;;;0.77;0.77;;;;;;;6.47;70.08;97836.28;5067277;28;20040;-72
2023/05/17 02:34:21;;;;;;;0.70;0.70;;;;;;;6.42;70.23;97838.59;5068394;28;20083;-70
2023/05/17 02:36:49;;;;;;;0.70;0.70;;;;;;;6.35;70.29;97837.56;5061103;28;20103;-70
2023/05/17 02:39:17;;;;;;;0.68;0.68;;;;;;;6.28;70.65;97853.28;5065597;28;20488;-70
2023/05/17 02:41:45;;;;;;;0.20;0.20;;;;;;;6.32;70.45;97854.66;5067377;28;20469;-71
2023/05/17 02:44:12;;;;;;;0.73;0.73;;;;;;;6.26;70.43;97861.41;5054247;28;20056;-70
2023/05/17 02:46:40;;;;;;;0.68;0.68;;;;;;;6.12;71.02;97861.22;5063455;28;20091;-71
2023/05/17 02:49:09;;;;;;;0.73;0.73;;;;;;;6.18;70.79;97869.34;5071612;28;20044;-70
2023/05/17 02:51:36;;;;;;;0.90;0.90;;;;;;;6.06;71.17;97867.97;5048853;28;20095;-72
2023/05/17 02:54:04;;;;;;;0.63;0.63;;;;;;;6.08;71.23;97867.81;5071849;28;20080;-70
2023/05/17 02:56:32;;;;;;;0.70;0.70;;;;;;;6.10;71.18;97876.44;5053675;28;20072;-70
2023/05/17 02:59:01;;;;;;;0.93;0.93;;;;;;;6.02;71.50;97869.25;5062599;28;20087;-70
2023/05/17 03:01:31;;;;;;;0.70;0.70;;;;;;;6.00;71.87;97876.56;5037947;28;20095;-71
2023/05/17 03:03:58;;;;;;;0.50;0.50;;;;;;;5.99;72.00;97879.34;5056645;28;20037;-71
2023/05/17 03:06:28;;;;;;;0.95;0.95;;;;;;;5.98;72.10;97883.81;5046865;28;20134;-71
2023/05/17 03:08:56;;;;;;;0.80;0.80;;;;;;;6.02;72.06;97887.78;5062079;28;20064;-71
2023/05/17 03:11:24;;;;;;;0.75;0.75;;;;;;;6.09;71.91;97895.97;5046064;28;20045;-71
2023/05/17 03:13:53;;;;;;;0.90;0.90;;;;;;;6.08;72.07;97897.78;5045880;28;20048;-71
2023/05/17 03:16:25;;;;;;;0.55;0.55;;;;;;;6.03;72.30;97901.88;5066617;28;20040;-70
2023/05/17 03:18:52;;;;;;;0.90;0.90;;;;;;;5.88;72.76;97897.19;5070890;28;20053;-71
2023/05/17 03:21:20;;;;;;;1.13;1.13;;;;;;;5.89;73.03;97896.19;5045572;28;20500;-71
2023/05/17 03:23:51;;;;;;;0.68;0.68;;;;;;;5.90;73.20;97907.63;5071094;28;20037;-71
2023/05/17 03:26:18;;;;;;;0.25;0.25;;;;;;;5.88;73.11;97910.44;5066248;28;20444;-71
2023/05/17 03:28:50;;;;;;;0.85;0.85;;;;;;;5.77;73.70;97908.00;5038027;28;20075;-71
2023/05/17 03:31:18;;;;;;;0.77;0.77;;;;;;;5.73;73.57;97911.13;5050805;28;20054;-71
2023/05/17 03:33:46;;;;;;;0.85;0.85;;;;;;;5.85;73.41;97907.22;5044354;28;20041;-71
2023/05/17 03:36:14;;;;;;;0.75;0.75;;;;;;;5.99;72.38;97909.31;5043211;28;20068;-70
2023/05/17 03:38:42;;;;;;;0.98;0.98;;;;;;;6.16;71.52;97904.91;5067665;28;20747;-71
2023/05/17 03:41:11;;;;;;;0.60;0.60;;;;;;;6.23;70.76;97908.59;5045493;28;20040;-71
2023/05/17 03:43:40;;;;;;;0.32;0.32;;;;;;;6.15;70.58;97912.03;5051847;28;20614;-71
2023/05/17 03:46:10;;;;;;;0.95;0.95;;;;;;;5.87;71.45;97910.56;5061115;28;20045;-70
2023/05/17 03:48:38;;;;;;;0.65;0.65;;;;;;;5.70;72.29;97908.81;5044582;28;20078;-70
2023/05/17 03:51:06;;;;;;;0.90;0.90;;;;;;;5.54;73.30;97917.47;5043716;28;20052;-71
2023/05/17 03:53:35;;;;;;;0.60;0.60;;;;;;;5.45;73.43;97916.56;5045302;28;20079;-71
2023/05/17 03:56:04;;;;;;;0.80;0.80;;;;;;;5.46;73.49;97914.75;5058983;28;20060;-71
2023/05/17 03:58:35;;;;;;;1.23;0.95;;;;;;;5.53;72.90;97915.78;5040554;28;20563;-70
2023/05/17 04:01:03;;;;;;;0.85;0.85;;;;;;;5.45;73.28;97924.50;5057924;28;20037;-71
2023/05/17 04:03:32;;;;;;;0.70;0.70;;;;;;;5.54;72.91;97918.28;5059475;28;20041;-70
2023/05/17 04:06:05;;;;;;;0.63;0.63;;;;;;;5.33;73.65;97928.38;5055192;28;20033;-71
2023/05/17 04:08:34;;;;;;;0.70;0.70;;;;;;;5.25;73.93;97922.19;5066952;28;20099;-71
2023/05/17 04:11:08;;;;;;;0.70;0.70;;;;;;;5.21;74.22;97934.91;5062639;28;20044;-70
2023/05/17 04:13:38;;;;;;;0.82;0.82;;;;;;;5.14;74.36;97928.56;5046438;28;20080;-70
2023/05/17 04:16:07;;;;;;;0.82;0.82;;;;;;;5.07;75.12;97935.44;5067329;28;20067;-71
2023/05/17 04:18:37;;;;;;;0.70;0.70;;;;;;;5.04;75.45;97941.03;5050531;28;20045;-71
2023/05/17 04:21:05;;;;;;;0.70;0.70;;;;;;;5.06;75.48;97936.44;5051876;28;20040;-70
2023/05/17 04:23:35;;;;;;;0.82;0.82;;;;;;;5.14;75.43;97931.22;5047308;28;20044;-71
2023/05/17 04:26:03;;;;;;;0.55;0.55;;;;;;;5.26;74.75;97930.00;5065162;28;20036;-71
2023/05/17 04:28:33;;;;;;;0.82;0.82;;;;;;;5.27;74.84;97930.81;5048339;28;20036;-72
2023/05/17 04:31:06;;;;;;;0.20;0.20;;;;;;;5.29;74.79;97937.63;5044792;28;20416;-71
2023/05/17 04:33:35;;;;;;;0.73;0.73;;;;;;;5.17;75.60;97938.84;5042951;28;20044;-71
2023/05/17 04:36:03;;;;;;;0.77;0.77;;;;;;;5.16;75.79;97934.53;5045264;28;20416;-70
2023/05/17 04:38:32;;;;;;;0.75;0.75;;;;;;;5.38;74.77;97942.00;5066947;28;20064;-71
2023/05/17 04:41:03;;;;;;;0.70;0.70;;;;;;;5.53;73.95;97948.38;5047133;28;20052;-70
2023/05/17 04:43:33;;;;;;;0.77;0.77;;;;;;;5.68;73.31;97953.97;5056385;28;20048;-71
2023/05/17 04:46:05;;;;;;;0.10;0.10;;;;;;;5.69;73.36;97958.28;5068508;28;20488;-71
2023/05/17 04:48:33;;;;;;;0.73;0.73;;;;;;;5.70;73.33;97959.94;5071210;28;20040;-69
2023/05/17 04:51:02;;;;;;;0.80;0.80;;;;;;;5.66;73.63;97963.06;5058131;28;20109;-71
2023/05/17 04:53:31;;;;;;;0.70;0.70;;;;;;;5.52;74.10;97964.41;5070183;28;20535;-70
2023/05/17 04:56:02;;;;;;;0.80;0.80;;;;;;;5.31;75.56;97956.81;5054609;28;20078;-72
2023/05/17 04:58:30;;;;;;;0.90;0.90;;;;;;;5.54;75.03;97960.66;5055404;28;20043;-72
2023/05/17 05:01:00;;;;;;;0.82;0.82;;;;;;;5.80;74.33;97962.50;5071173;28;20128;-70
2023/05/17 05:03:29;;;;;;;0.77;0.77;;;;;;;5.99;73.63;97970.25;5069448;28;20051;-70
2023/05/17 05:05:56;;;;;;;0.90;0.90;;;;;;;6.07;73.42;97972.94;5066948;28;20049;-70
2023/05/17 05:08:25;;;;;;;0.77;0.77;;;;;;;6.20;73.11;97970.72;5055501;28;20075;-71
2023/05/17 05:10:54;;;;;;;0.88;0.88;;;;;;;6.28;73.00;97974.38;5072549;28;20044;-71
2023/05/17 05:13:23;;;;;;;0.68;0.68;;;;;;;6.38;72.74;97969.78;5051239;28;20086;-70
2023/05/17 05:15:53;;;;;;;0.70;0.70;;;;;;;6.33;73.18;97964.97;5053199;28;20052;-71
2023/05/17 05:18:20;;;;;;;0.70;0.70;;;;;;;6.22;73.58;97976.69;5073335;28;20254;-71
2023/05/17 05:20:50;;;;;;;0.82;0.82;;;;;;;6.14;73.90;97973.97;5066704;28;20044;-70
2023/05/17 05:23:18;;;;;;;0.70;0.70;;;;;;;6.14;74.53;97970.50;5050702;28;20077;-70
2023/05/17 05:25:48;;;;;;;0.60;0.60;;;;;;;6.13;74.55;97974.97;5044032;28;20055;-71
2023/05/17 05:28:15;;;;;;;0.15;0.15;;;;;;;6.26;74.37;97993.09;5067510;28;20399;-71
2023/05/17 05:30:44;;;;;;;0.85;0.85;;;;;;;6.37;73.88;97989.34;5051135;28;20071;-72
2023/05/17 05:33:13;;;;;;;0.55;0.55;;;;;;;6.50;72.96;97995.03;5044561;28;20037;-70
2023/05/17 05:35:41;;;;;;;0.80;0.80;;;;;;;6.57;72.88;97998.69;5049634;28;20049;-70
2023/05/17 05:38:10;;;;;;;0.93;0.93;;;;;;;6.67;72.76;98002.06;5044763;28;20040;-70
2023/05/17 05:40:38;;;;;;;1.00;1.00;;;;;;;6.80;72.34;98002.44;5070841;28;20044;-71
2023/05/17 05:43:06;;;;;;;0.90;0.90;;;;;;;6.71;72.26;98006.06;5068758;28;20040;-71
2023/05/17 05:45:33;;;;;;;0.85;0.85;;;;;;;6.76;72.25;98014.34;5070784;28;20070;-71
2023/05/17 05:48:04;;;;;;;0.68;0.68;;;;;;;6.79;72.51;98007.91;5054375;28;20043;-71
2023/05/17 05:50:32;;;;;;;0.90;0.90;;;;;;;6.90;72.16;98015.56;5060485;28;20049;-71
2023/05/17 05:53:05;;;;;;;0.75;0.75;;;;;;;6.99;72.22;98018.09;5074285;28;20041;-72
2023/05/17 05:55:49;;;;;;;0.20;0.20;;;;;;;7.09;71.89;98015.28;5067028;28;20404;-71
2023/05/17 05:58:17;;;;;;;0.82;0.82;;;;;;;7.15;72.14;98022.63;5053417;28;20052;-71
2023/05/17 06:00:45;;;;;;;0.60;0.60;;;;;;;7.14;72.10;98020.97;5079528;28;20444;-70
2023/05/17 06:03:13;;;;;;;0.93;0.93;;;;;;;7.17;72.32;98023.25;5068176;28;20115;-71
2023/05/17 06:05:41;;;;;;;0.68;0.68;;;;;;;7.26;71.75;98024.97;5068148;28;20040;-71
2023/05/17 06:08:09;;;;;;;0.82;0.82;;;;;;;7.27;72.19;98033.75;5067402;28;20033;-71
2023/05/17 06:10:36;;;;;;;0.65;0.65;;;;;;;7.31;72.17;98032.44;5063363;28;20048;-73
2023/05/17 06:13:05;;;;;;;0.93;0.93;;;;;;;7.24;72.07;98034.09;5047241;28;20076;-71
2023/05/17 06:15:33;;;;;;;0.93;0.93;;;;;;;7.32;72.37;98026.97;5052465;28;20059;-71
2023/05/17 06:18:01;;;;;;;0.50;0.50;;;;;;;7.44;72.53;98029.31;5059485;28;20055;-72
2023/05/17 06:20:28;;;;;;;0.90;0.90;;;;;;;7.63;72.02;98044.91;5057756;28;20500;-71
2023/05/17 06:22:56;;;;;;;0.57;0.57;;;;;;;7.65;71.53;98045.59;5058721;28;20515;-70
2023/05/17 06:25:24;;;;;;;0.65;0.65;;;;;;;7.66;71.63;98053.41;5066519;28;20040;-71
2023/05/17 06:27:52;;;;;;;0.80;0.80;;;;;;;7.80;71.30;98043.94;5065158;28;20055;-71
2023/05/17 06:30:21;;;;;;;0.73;0.73;;;;;;;7.65;71.33;98038.47;5068493;28;20046;-72
2023/05/17 06:32:48;;;;;;;0.90;0.90;;;;;;;7.68;71.94;98045.28;5053872;28;20084;-71
2023/05/17 06:35:16;;;;;;;0.82;0.82;;;;;;;7.84;71.47;98047.91;5066054;28;20044;-70
2023/05/17 06:37:43;;;;;;;0.60;0.60;;;;;;;8.00;71.28;98045.25;5057667;28;20052;-71
2023/05/17 06:40:12;;;;;;;0.75;0.75;;;;;;;8.04;70.80;98056.38;5064461;28;20091;-72
2023/05/17 06:42:58;;;;;;;0.90;0.90;;;;;;;8.25;70.48;98055.88;5051517;28;20045;-71
2023/05/17 06:45:27;;;;;;;0.77;0.77;;;;;;;8.41;70.07;98058.50;5048738;28;20044;-71
2023/05/17 06:47:55;;;;;;;0.70;0.70;;;;;;;8.45;69.74;98060.69;5060728;28;20055;-71
2023/05/17 06:50:22;;;;;;;0.65;0.65;;;;;;;8.56;69.29;98056.84;5062087;28;20119;-71
2023/05/17 06:52:50;;;;;;;0.93;0.93;;;;;;;8.56;69.22;98064.81;5061870;28;20127;-72
2023/05/17 06:55:18;;;;;;;0.30;0.30;;;;;;;8.63;69.19;98060.47;5062009;28;20475;-71
2023/05/17 06:57:45;;;;;;;0.85;0.85;;;;;;;8.65;69.61;98062.97;5061384;28;20123;-71
2023/05/17 07:00:14;;;;;;;0.77;0.77;;;;;;;8.77;69.01;98064.25;5067815;28;20048;-71
2023/05/17 07:02:44;;;;;;;0.20;0.20;;;;;;;8.84;68.97;98062.56;5044528;28;20419;-71
2023/05/17 07:05:12;;;;;;;1.00;1.00;;;;;;;8.91;68.97;98065.38;5065388;28;20399;-72
2023/05/17 07:07:39;;;;;;;0.80;0.80;;;;;;;8.97;68.87;98070.00;5066249;28;20449;-71
2023/05/17 07:10:07;;;;;;;0.55;0.55;;;;;;;9.10;68.35;98068.44;5065071;28;20496;-71
2023/05/17 07:12:35;;;;;;;0.70;0.70;;;;;;;9.05;68.35;98070.78;5055130;28;20056;-71
2023/05/17 07:15:03;;;;;;;0.20;0.20;;;;;;;9.00;68.58;98067.84;5059737;28;20407;-71
2023/05/17 07:17:30;;;;;;;0.60;0.60;;;;;;;8.99;68.82;98076.81;5050492;28;20053;-71
2023/05/17 07:19:59;;;;;;;0.80;0.80;;;;;;;9.09;68.78;98071.28;5042119;28;20521;-70
2023/05/17 07:22:27;;;;;;;0.70;0.70;;;;;;;9.25;68.47;98065.03;5064959;28;20049;-70
2023/05/17 07:24:55;;;;;;;0.60;0.60;;;;;;;9.29;nan;98064.53;5065141;28;20056;-70
2023/05/17 07:27:23;;;;;;;0.95;0.95;;;;;;;9.42;67.46;98059.47;5059163;28;20040;-72
2023/05/17 07:29:50;;;;;;;0.70;0.70;;;;;;;9.50;67.70;98067.41;5062799;28;20048;-71
2023/05/17 07:32:18;;;;;;;0.82;0.82;;;;;;;9.56;66.63;98065.84;5066963;28;20043;-71
2023/05/17 07:34:45;;;;;;;0.68;0.68;;;;;;;9.58;65.54;98062.00;5065488;28;20095;-71
2023/05/17 07:37:15;;;;;;;0.77;0.77;;;;;;;9.55;64.99;98066.88;5066062;28;20070;-70
2023/05/17 07:39:42;;;;;;;0.82;0.82;;;;;;;9.61;65.33;98070.66;5068761;28;20052;-70
2023/05/17 07:42:10;;;;;;;0.70;0.70;;;;;;;9.65;64.66;98072.81;5063694;28;20128;-70
2023/05/17 07:44:37;;;;;;;0.70;0.70;;;;;;;9.76;64.25;98067.03;5065535;28;20051;-70
2023/05/17 07:47:05;;;;;;;0.75;0.75;;;;;;;9.94;63.89;98070.25;5065979;28;20048;-70
2023/05/17 07:49:33;;;;;;;0.75;0.75;;;;;;;10.07;63.32;98077.63;5068862;28;20098;-70
2023/05/17 07:52:02;;;;;;;0.77;0.77;;;;;;;10.08;62.82;98075.78;5063764;28;20043;-70
2023/05/17 07:54:31;;;;;;;0.85;0.85;;;;;;;10.25;62.55;98061.34;5070333;28;20567;-71
2023/05/17 07:56:59;;;;;;;0.80;0.80;;;;;;;10.43;62.27;98066.34;5065407;28;20041;-70
2023/05/17 07:59:26;;;;;;;1.10;1.10;;;;;;;10.50;61.98;98062.75;5059286;28;20084;-69
2023/05/17 08:01:54;;;;;;;0.50;0.50;;;;;;;10.50;61.58;98067.28;5062581;28;20049;-70
2023/05/17 08:04:22;;;;;;;0.52;0.52;;;;;;;10.47;61.49;98065.81;5068593;28;20044;-69
2023/05/17 08:06:50;;;;;;;0.77;0.77;;;;;;;10.34;61.43;98060.25;5065880;28;20066;-69
2023/05/17 08:09:18;;;;;;;0.70;0.70;;;;;;;10.34;61.71;98059.44;5061899;28;20068;-70
2023/05/17 08:11:47;;;;;;;0.77;0.77;;;;;;;10.42;61.57;98064.69;5068828;28;20087;-69
2023/05/17 08:14:16;;;;;;;0.50;0.50;;;;;;;10.48;61.77;98066.66;5061553;28;20051;-69
2023/05/17 08:16:45;;;;;;;0.95;0.95;;;;;;;10.47;61.31;98065.81;5057650;28;20049;-69
2023/05/17 08:19:15;;;;;;;0.88;0.88;;;;;;;10.43;61.41;98075.19;5072433;28;20041;-69
2023/05/17 08:21:44;;;;;;;0.13;0.13;;;;;;;10.26;61.05;98066.53;5074053;28;20467;-69
2023/05/17 08:24:13;;;;;;;0.32;0.32;;;;;;;10.20;61.54;98074.41;5074339;28;20427;-69
2023/05/17 08:26:40;;;;;;;0.80;0.80;;;;;;;10.12;61.79;98069.94;5071517;28;20551;-69
2023/05/17 08:29:09;;;;;;;0.73;0.73;;;;;;;10.13;62.17;98078.78;5075978;28;20051;-69
2023/05/17 08:31:39;;;;;;;0.73;0.73;;;;;;;10.17;62.29;98080.91;5067206;28;20150;-70
2023/05/17 08:34:07;;;;;;;0.63;0.63;;;;;;;10.09;61.74;98088.13;5069536;28;20123;-70
2023/05/17 08:36:35;;;;;;;0.80;0.80;;;;;;;10.02;62.06;98090.69;5066976;28;20500;-70
2023/05/17 08:39:03;;;;;;;0.90;0.90;;;;;;;10.06;62.55;98086.66;5067755;28;20063;-69
2023/05/17 08:41:31;;;;;;;0.32;0.30;;;;;;;10.14;62.34;98099.09;5065904;28;20403;-70
2023/05/17 08:43:59;;;;;;;0.73;0.73;;;;;;;10.17;61.87;98088.09;5069035;28;20316;-69
2023/05/17 08:46:30;;;;;;;0.80;0.80;;;;;;;10.15;61.82;98090.91;5069430;28;20048;-70
2023/05/17 08:48:58;;;;;;;0.70;0.70;;;;;;;10.19;61.65;98088.75;5067570;28;20055;-70
2023/05/17 08:51:27;;;;;;;0.60;0.60;;;;;;;10.15;61.33;98084.75;5069983;28;20056;-69
2023/05/17 08:53:56;;;;;;;0.60;0.60;;;;;;;10.18;60.95;98095.91;5062102;28;20068;-69
2023/05/17 08:56:25;;;;;;;0.90;0.90;;;;;;;10.28;61.35;98090.31;5062223;28;20147;-70
2023/05/17 08:58:56;;;;;;;0.20;0.20;;;;;;;10.40;60.93;98086.22;5067581;28;20405;-70
2023/05/17 09:01:25;;;;;;;0.85;0.85;;;;;;;10.41;60.67;98085.22;5069980;28;20056;-71
2023/05/17 09:03:56;;;;;;;0.73;0.73;;;;;;;10.49;60.13;98086.97;5067639;28;20519;-69
2023/05/17 09:06:24;;;;;;;0.82;0.82;;;;;;;10.51;60.07;98080.44;5055886;28;20568;-69
2023/05/17 09:08:53;;;;;;;0.55;0.55;;;;;;;10.43;60.00;98083.19;5060998;28;20518;-70
2023/05/17 09:11:28;;;;;;;0.88;0.88;;;;;;;10.52;59.91;98087.44;5066605;28;20051;-70
2023/05/17 09:13:58;;;;;;;1.00;1.00;;;;;;;10.51;59.76;98088.44;5067291;28;20390;-71
2023/05/17 09:16:28;;;;;;;0.70;0.70;;;;;;;10.54;59.74;98088.09;5067420;28;20044;-69
2023/05/17 09:18:58;;;;;;;1.23;1.23;;;;;;;10.29;58.66;98091.97;5062948;28;20500;-69
2023/05/17 09:21:27;;;;;;;1.00;1.00;;;;;;;10.48;59.21;98093.34;5064148;28;20032;-69
2023/05/17 09:23:55;;;;;;;0.60;0.60;;;;;;;10.57;58.83;98098.41;5062333;28;20522;-71
2023/05/17 09:26:25;;;;;;;0.68;0.68;;;;;;;10.68;57.64;98094.47;5064840;28;20052;-70
2023/05/17 09:28:53;;;;;;;0.57;0.57;;;;;;;10.75;57.50;98090.03;5073708;28;20055;-70
2023/05/17 09:31:21;;;;;;;0.80;0.80;;;;;;;10.69;57.23;98087.28;5068644;28;20047;-71
2023/05/17 09:33:50;;;;;;;0.70;0.70;;;;;;;10.65;57.64;98094.81;5067946;28;20044;-69
2023/05/17 09:36:21;;;;;;;0.68;0.68;;;;;;;10.72;55.40;98092.25;5064184;28;20056;-69
2023/05/17 09:38:55;;;;;;;0.30;0.30;;;;;;;10.60;56.21;98105.19;5066198;28;20501;-70
2023/05/17 09:41:26;;;;;;;0.75;0.75;;;;;;;10.62;57.19;98109.34;5064768;28;20084;-70
2023/05/17 09:43:57;;;;;;;0.63;0.63;;;;;;;10.63;57.40;98110.19;5064435;28;20060;-70
2023/05/17 09:46:25;;;;;;;0.90;0.90;;;;;;;10.60;58.07;98113.22;5062774;28;20053;-70
2023/05/17 09:48:54;;;;;;;0.70;0.70;;;;;;;10.37;57.95;98115.94;5072631;28;20574;-70
2023/05/17 09:51:32;;;;;;;0.60;0.60;;;;;;;10.47;58.06;98118.34;5073078;28;20048;-70
2023/05/17 09:54:00;;;;;;;;;;;;;;;10.49;58.46;98125.16;5066396;28;20055;-70
2023/05/17 09:56:28;;;;;;;0.68;0.68;;;;;;;10.47;58.55;98131.69;5068084;28;19920;-70
2023/05/17 09:58:56;;;;;;;0.77;0.77;;;;;;;10.53;58.86;98133.63;5063221;28;20073;-71
2023/05/17 10:01:26;;;;;;;0.70;0.70;;;;;;;10.55;58.85;98134.28;5054666;28;20043;-70
2023/05/17 10:03:55;;;;;;;0.65;0.65;;;;;;;10.60;58.96;98130.06;5066138;28;20041;-69
2023/05/17 10:06:23;;;;;;;1.08;1.08;;;;;;;10.55;58.77;98129.78;5067688;28;20041;-70
2023/05/17 10:09:13;;;;;;;0.73;0.73;;;;;;;10.51;59.57;98139.16;5065620;28;20045;-70
2023/05/17 10:11:43;;;;;;;0.95;0.95;;;;;;;10.59;59.37;98139.06;5066041;28;20051;-70
2023/05/17 10:14:13;;;;;;;0.70;0.70;;;;;;;10.70;59.18;98144.97;5066458;28;20495;-70
2023/05/17 10:16:41;;;;;;;0.60;0.60;;;;;;;10.70;58.24;98140.47;5060299;28;20055;-70
2023/05/17 10:19:11;;;;;;;0.68;0.68;;;;;;;10.70;58.81;98139.63;5069673;28;20099;-69
2023/05/17 10:21:39;;;;;;;0.73;0.73;;;;;;;10.74;59.09;98146.28;5071939;28;20128;-69
2023/05/17 10:24:07;;;;;;;0.50;0.50;;;;;;;10.67;58.98;98151.53;5067836;28;20068;-69
2023/05/17 10:26:37;;;;;;;0.65;0.65;;;;;;;10.75;59.17;98153.28;5070462;28;20064;-70
2023/05/17 10:29:07;;;;;;;1.00;1.00;;;;;;;10.74;58.65;98147.13;5072285;28;20127;-69
2023/05/17 10:31:35;;;;;;;0.73;0.73;;;;;;;10.76;58.71;98152.28;5067622;28;20112;-70
2023/05/17 10:34:04;;;;;;;0.65;0.65;;;;;;;10.82;58.69;98149.69;5068083;28;20510;-69
2023/05/17 10:36:33;;;;;;;0.55;0.55;;;;;;;10.87;58.90;98152.66;5067160;28;20048;-69
2023/05/17 10:39:02;;;;;;;0.75;0.75;;;;;;;10.94;58.13;98152.75;5066438;28;20104;-70
2023/05/17 10:41:33;;;;;;;0.73;0.73;;;;;;;11.07;58.55;98147.63;5064375;28;20044;-70
2023/05/17 10:44:03;;;;;;;0.20;0.20;;;;;;;10.99;57.08;98153.06;5063684;28;20434;-69
2023/05/17 10:46:32;;;;;;;0.63;0.63;;;;;;;10.98;57.34;98144.22;5071057;28;20354;-69
2023/05/17 10:49:00;;;;;;;0.52;0.52;;;;;;;11.05;57.00;98141.63;5063640;28;20123;-69
2023/05/17 10:51:31;;;;;;;0.57;0.57;;;;;;;11.15;55.63;98136.81;5071006;28;20045;-70
2023/05/17 10:54:09;;;;;;;0.50;0.50;;;;;;;11.07;56.22;98142.28;5071630;28;20541;-69
2023/05/17 10:56:40;;;;;;;0.80;0.80;;;;;;;11.26;56.28;98135.53;5072528;28;20101;-69
2023/05/17 10:59:23;;;;;;;0.70;0.70;;;;;;;11.43;55.89;98136.16;5064329;28;20496;-71
2023/05/17 11:01:56;;;;;;;0.75;0.75;;;;;;;11.51;55.36;98136.91;5065848;28;20128;-70
2023/05/17 11:04:26;;;;;;;0.73;0.73;;;;;;;11.57;55.64;98130.78;5070107;28;20044;-70
2023/05/17 11:06:56;;;;;;;0.65;0.65;;;;;;;11.67;55.53;98136.66;5064267;28;20037;-70
2023/05/17 11:09:24;;;;;;;0.70;0.70;;;;;;;11.72;55.13;98134.28;5066904;28;20072;-70
2023/05/17 11:12:04;;;;;;;0.60;0.60;;;;;;;11.73;54.89;98132.44;5058781;28;20520;-70
2023/05/17 11:14:52;;;;;;;0.75;0.75;;;;;;;11.80;54.49;98128.00;5067443;28;20630;-69
2023/05/17 11:17:21;;;;;;;0.93;0.93;;;;;;;11.79;54.21;98118.31;5060324;28;20064;-70
2023/05/17 11:19:54;;;;;;;0.32;0.32;;;;;;;11.77;54.17;98120.34;5048517;28;20451;-70
2023/05/17 11:22:23;;;;;;;0.73;0.73;;;;;;;11.72;54.05;98120.06;5068016;28;20040;-70
2023/05/17 11:24:53;;;;;;;0.70;0.70;;;;;;;11.67;54.42;98112.59;5061938;28;20037;-70
2023/05/17 11:27:26;;;;;;;0.60;0.60;;;;;;;11.59;54.22;98114.56;5067838;28;20037;-70
2023/05/17 11:29:55;;;;;;;0.70;0.70;;;;;;;11.50;54.34;98113.03;5068138;28;20044;-69
2023/05/17 11:32:27;;;;;;;0.80;0.80;;;;;;;11.51;54.68;98109.34;5061152;28;20120;-70
2023/05/17 11:34:54;;;;;;;0.30;0.30;;;;;;;11.60;54.57;98114.38;5067716;28;20415;-70
2023/05/17 11:37:26;;;;;;;0.65;0.65;;;;;;;11.60;54.20;98114.38;5065949;28;20120;-70
2023/05/17 11:40:05;;;;;;;0.77;0.77;;;;;;;11.70;54.56;98114.06;5064879;28;20400;-69
2023/05/17 11:42:33;;;;;;;0.70;0.70;;;;;;;11.66;53.97;98102.91;5068436;28;20040;-70
2023/05/17 11:45:02;;;;;;;0.63;0.63;;;;;;;11.76;53.93;98116.00;5063318;28;20041;-69
2023/05/17 11:47:31;;;;;;;0.60;0.60;;;;;;;11.65;54.57;98108.44;5063594;28;20108;-69
2023/05/17 11:50:00;;;;;;;0.70;0.70;;;;;;;11.70;55.12;98114.91;5060359;28;20132;-70